Time;durP1;ratioP1;P1;durP2;ratioP2;P2;SDS_P1;SDS_P2;PMS_P1;PMS_P2;Temp;Humidity;BMP_temperature;BMP_pressure;BME280_temperature;BME280_humidity;BME280_pressure;Samples;Min_cycle;Max_cycle;Signal;HPM_P1;HPM_P2
2023/09/21 00:00:09;;;;;;;3.50;2.30;;;15.40;99.90;15.50;99854.00;;;;4992312;27;92779;-66
2023/09/21 00:02:49;;;;;;;2.28;1.33;;;15.40;99.90;15.50;99854.00;;;;4975879;28;93917;-67
2023/09/21 00:05:27;;;;;;;4.18;0.70;;;15.50;99.90;15.60;99854.00;;;;4992858;27;93884;-67
2023/09/21 00:07:57;;;;;;;1.75;1.20;;;15.50;99.90;15.60;99842.00;;;;4997211;27;93087;-67
2023/09/21 00:10:23;;;;;;;2.15;1.10;;;15.60;99.90;15.60;99837.00;;;;4991327;27;93008;-67
2023/09/21 00:12:49;;;;;;;1.45;1.00;;;15.60;99.90;15.70;99835.00;;;;4991360;27;94066;-67
2023/09/21 00:15:18;;;;;;;0.98;0.85;;;15.60;99.90;15.70;99837.00;;;;4990319;27;122341;-67
2023/09/21 00:17:49;;;;;;;1.10;1.00;;;15.60;99.90;15.70;99836.00;;;;4992205;27;93349;-67
2023/09/21 00:21:00;;;;;;;4.18;2.35;;;15.60;99.90;15.70;99826.00;;;;4989897;27;93196;-66
2023/09/21 00:23:06;;;;;;;44.92;16.95;;;15.60;99.90;15.70;99831.00;;;;4980205;28;93839;-69
2023/09/21 00:25:33;;;;;;;23.92;9.25;;;15.60;99.90;15.60;99824.00;;;;4992781;27;94817;-66
2023/09/21 00:27:58;;;;;;;40.95;13.70;;;15.60;99.90;15.60;99829.00;;;;4997075;27;93135;-66
2023/09/21 00:30:24;;;;;;;36.05;13.45;;;15.50;99.90;15.50;99819.00;;;;4992618;27;108755;-66
2023/09/21 00:32:50;;;;;;;13.88;6.07;;;15.50;99.90;15.40;99824.00;;;;4992501;27;94082;-67
2023/09/21 00:35:16;;;;;;;17.20;7.35;;;15.40;99.90;15.40;99817.00;;;;4987988;27;121336;-66
2023/09/21 00:37:43;;;;;;;9.93;4.82;;;15.40;99.90;15.30;99810.00;;;;4992255;27;92913;-67
2023/09/21 00:40:18;;;;;;;28.63;7.80;;;15.30;99.90;15.20;99811.00;;;;4986471;28;107989;-67
2023/09/21 00:42:47;;;;;;;11.25;5.57;;;15.20;99.90;15.20;99807.00;;;;4991946;27;93867;-66
2023/09/21 00:45:14;;;;;;;11.15;6.32;;;15.10;99.90;15.10;99795.00;;;;4994696;27;94248;-67
2023/09/21 00:47:46;;;;;;;8.15;4.70;;;15.10;99.90;15.00;99801.00;;;;4974386;28;94273;-67
2023/09/21 00:50:12;;;;;;;11.80;4.90;;;15.00;99.90;15.00;99800.00;;;;4989054;27;93908;-66
2023/09/21 00:52:45;;;;;;;35.60;15.68;;;15.00;99.90;14.90;99797.00;;;;4973266;28;93219;-69
2023/09/21 00:55:16;;;;;;;23.40;7.80;;;14.90;99.90;14.80;99794.00;;;;4992362;27;123336;-67
2023/09/21 00:57:44;;;;;;;31.88;11.63;;;14.80;99.90;14.80;99793.00;;;;4990876;27;97285;-67
2023/09/21 01:00:16;;;;;;;24.17;10.18;;;14.80;99.90;14.70;99790.00;;;;4992510;27;93146;-67
2023/09/21 01:02:43;;;;;;;26.10;11.77;;;14.70;99.90;14.70;99788.00;;;;4974734;28;93548;-68
2023/09/21 01:05:11;;;;;;;21.52;7.30;;;14.60;99.90;14.60;99798.00;;;;4991297;27;93773;-66
2023/09/21 01:07:37;;;;;;;10.82;4.55;;;14.60;99.90;14.60;99793.00;;;;4992078;27;92954;-66
2023/09/21 01:10:07;;;;;;;15.55;6.88;;;14.60;99.90;14.60;99789.00;;;;4971250;28;108608;-67
2023/09/21 01:12:35;;;;;;;36.35;9.07;;;14.50;99.90;14.50;99788.00;;;;4982288;27;94704;-67
2023/09/21 01:15:10;;;;;;;9.25;3.88;;;14.50;99.90;14.40;99788.00;;;;4993142;28;94062;-67
2023/09/21 01:17:41;;;;;;;4.05;2.53;;;14.50;99.90;14.40;99776.00;;;;4992255;27;92888;-67
2023/09/21 01:20:51;;;;;;;2.92;1.60;;;14.60;99.90;14.40;99775.00;;;;4991437;27;92933;-67
2023/09/21 01:23:18;;;;;;;2.38;1.92;;;14.30;99.90;14.30;99781.00;;;;4956103;28;96876;-67
2023/09/21 01:25:48;;;;;;;3.20;1.25;;;14.30;99.90;14.30;99782.00;;;;4978196;28;93286;-67
2023/09/21 01:28:18;;;;;;;6.72;2.83;;;14.30;99.90;14.20;99773.00;;;;4969395;28;94044;-65
2023/09/21 01:30:44;;;;;;;2.78;1.27;;;14.20;99.90;14.20;99765.00;;;;4992726;28;92249;-66
2023/09/21 01:33:15;;;;;;;14.63;5.88;;;14.20;99.90;14.20;99769.00;;;;4989273;28;93885;-66
2023/09/21 01:35:45;;;;;;;10.77;3.60;;;14.20;99.90;14.10;99766.00;;;;4991973;28;95163;-66
2023/09/21 01:38:14;;;;;;;3.53;2.53;;;14.10;99.90;14.10;99758.00;;;;4984501;28;94171;-66
2023/09/21 01:40:42;;;;;;;5.72;1.83;;;14.10;99.90;14.10;99754.00;;;;4988264;28;108707;-66
2023/09/21 01:43:14;;;;;;;1.88;1.67;;;14.10;99.90;14.10;99741.00;;;;4990930;28;93892;-67
2023/09/21 01:45:40;;;;;;;2.10;1.33;;;14.10;99.90;14.00;99751.00;;;;4994332;28;93868;-67
2023/09/21 01:48:11;;;;;;;3.17;2.42;;;14.00;99.90;14.00;99752.00;;;;4984681;28;102520;-67
2023/09/21 01:50:43;;;;;;;6.60;3.22;;;14.00;99.90;14.00;99754.00;;;;4972883;28;100224;-67
2023/09/21 01:53:10;;;;;;;6.22;3.58;;;14.00;99.90;14.00;99743.00;;;;4987683;28;93907;-67
2023/09/21 01:55:37;;;;;;;5.78;3.83;;;14.00;99.90;13.90;99748.00;;;;4994264;28;93982;-67
2023/09/21 01:58:04;;;;;;;2.80;1.90;;;13.90;99.90;13.90;99742.00;;;;4993176;28;103359;-68
2023/09/21 02:00:34;;;;;;;10.25;5.95;;;13.90;99.90;13.80;99743.00;;;;4990504;28;92852;-68
2023/09/21 02:03:01;;;;;;;16.23;7.75;;;13.80;99.90;13.80;99741.00;;;;4989006;28;95252;-66
2023/09/21 02:05:28;;;;;;;3.27;2.43;;;13.80;99.90;13.80;99750.00;;;;4991757;28;94082;-67
2023/09/21 02:07:55;;;;;;;3.55;2.08;;;13.70;99.90;13.70;99746.00;;;;4990136;28;109600;-67
2023/09/21 02:10:21;;;;;;;1.30;0.68;;;13.70;99.90;13.60;99739.00;;;;4991740;28;92841;-66
2023/09/21 02:12:58;;;;;;;1.17;1.10;;;13.70;99.90;13.60;99730.00;;;;4992895;28;108011;-67
2023/09/21 02:15:25;;;;;;;4.00;1.80;;;13.70;99.90;13.50;99735.00;;;;4994739;28;92957;-68
2023/09/21 02:17:52;;;;;;;1.60;1.40;;;13.50;99.90;13.50;99731.00;;;;4985310;27;92849;-66
2023/09/21 02:20:20;;;;;;;10.77;3.10;;;13.50;99.90;13.40;99730.00;;;;4990669;28;92306;-67
2023/09/21 02:22:48;;;;;;;6.65;2.97;;;13.40;99.90;13.40;99721.00;;;;4990289;28;94300;-67
2023/09/21 02:25:15;;;;;;;4.53;2.47;;;13.40;99.90;13.40;99725.00;;;;4990352;28;93026;-68
2023/09/21 02:27:48;;;;;;;11.60;6.57;;;13.30;99.90;13.30;99715.00;;;;4993384;27;93982;-67
2023/09/21 02:30:22;;;;;;;13.60;5.33;;;13.30;99.90;13.30;99718.00;;;;4994449;27;92967;-67
2023/09/21 02:32:52;;;;;;;24.17;8.43;;;13.30;99.90;13.20;99722.00;;;;4992240;27;93631;-67
2023/09/21 02:35:23;;;;;;;17.73;8.20;;;13.30;99.90;13.20;99715.00;;;;4991672;28;93699;-67
2023/09/21 02:37:51;;;;;;;6.20;3.30;;;13.20;99.90;13.20;99710.00;;;;4979088;28;93083;-67
2023/09/21 02:40:19;;;;;;;10.10;3.53;;;13.20;99.90;13.10;99712.00;;;;4992504;28;92864;-67
2023/09/21 02:42:49;;;;;;;4.07;1.90;;;13.10;99.90;13.10;99711.00;;;;4981957;27;94354;-67
2023/09/21 02:45:18;;;;;;;4.03;1.93;;;13.10;99.90;13.10;99704.00;;;;4991650;28;93138;-67
2023/09/21 02:47:44;;;;;;;1.17;0.93;;;13.10;99.90;13.00;99704.00;;;;4992071;28;92856;-67
2023/09/21 02:50:14;;;;;;;1.87;1.30;;;13.10;99.90;13.00;99714.00;;;;4985990;28;93119;-67
2023/09/21 02:53:06;;;;;;;2.63;0.80;;;13.00;99.90;12.90;99703.00;;;;4992506;27;95312;-67
2023/09/21 02:55:33;;;;;;;1.47;1.07;;;13.00;99.90;12.90;99704.00;;;;4969834;28;95535;-67
2023/09/21 02:58:10;;;;;;;1.33;1.00;;;12.90;99.90;12.90;99705.00;;;;4992646;27;93140;-66
2023/09/21 03:00:44;;;;;;;2.30;1.03;;;12.90;99.90;12.90;99707.00;;;;4992263;27;93192;-67
2023/09/21 03:03:20;;;;;;;2.53;0.90;;;12.90;99.90;12.80;99707.00;;;;4978219;28;95148;-67
2023/09/21 03:05:51;;;;;;;4.37;2.27;;;12.90;99.90;12.80;99704.00;;;;4994554;27;93596;-68
2023/09/21 03:08:18;;;;;;;25.50;12.20;;;12.80;99.90;12.80;99701.00;;;;4996206;28;92936;-68
2023/09/21 03:10:45;;;;;;;37.87;13.03;;;12.80;99.90;12.80;99702.00;;;;4998574;27;92357;-67
2023/09/21 03:13:18;;;;;;;11.37;6.60;;;12.80;99.90;12.70;99702.00;;;;4994470;27;94129;-68
2023/09/21 03:15:45;;;;;;;12.13;5.00;;;12.70;99.90;12.70;99697.00;;;;4993038;28;93471;-67
2023/09/21 03:18:11;;;;;;;6.13;3.83;;;12.70;99.90;12.70;99692.00;;;;4992498;27;95478;-67
2023/09/21 03:20:37;;;;;;;5.90;2.67;;;12.70;99.90;12.70;99689.00;;;;4993211;27;109149;-68
2023/09/21 03:23:09;;;;;;;4.50;3.10;;;12.70;99.90;12.70;99691.00;;;;4994439;27;94087;-68
2023/09/21 03:25:40;;;;;;;3.13;1.73;;;12.70;99.90;12.60;99685.00;;;;4997401;28;92897;-68
2023/09/21 03:28:14;;;;;;;2.93;1.70;;;12.70;99.90;12.60;99679.00;;;;4992738;27;92804;-69
2023/09/21 03:30:41;;;;;;;3.87;2.17;;;12.70;99.90;12.60;99679.00;;;;4973055;28;93212;-67
2023/09/21 03:33:09;;;;;;;2.43;1.90;;;12.70;99.90;12.60;99665.00;;;;4990913;27;113513;-67
2023/09/21 03:35:37;;;;;;;2.43;1.70;;;12.60;99.90;12.60;99676.00;;;;4996040;27;93218;-67
2023/09/21 03:38:06;;;;;;;7.50;2.07;;;12.60;99.90;12.60;99658.00;;;;4971898;28;93460;-67
2023/09/21 03:40:34;;;;;;;4.97;1.83;;;12.60;99.90;12.60;99656.00;;;;4992493;27;93071;-67
2023/09/21 03:43:00;;;;;;;1.20;1.10;;;12.60;99.90;12.60;99659.00;;;;4991933;28;124322;-67
2023/09/21 03:45:26;;;;;;;2.00;1.67;;;12.60;99.90;12.50;99660.00;;;;4995621;28;94502;-67
2023/09/21 03:47:53;;;;;;;1.90;1.63;;;12.50;99.90;12.50;99664.00;;;;4993265;28;92906;-67
2023/09/21 03:50:19;;;;;;;1.63;1.40;;;12.50;99.90;12.50;99667.00;;;;4984394;28;101583;-67
2023/09/21 03:52:47;;;;;;;2.10;1.30;;;12.50;99.90;12.50;99667.00;;;;4979361;28;93390;-67
2023/09/21 03:55:16;;;;;;;1.80;1.37;;;12.50;99.90;12.50;99660.00;;;;4991402;28;93241;-67
2023/09/21 03:57:46;;;;;;;3.93;2.27;;;12.50;99.90;12.50;99673.00;;;;4992973;27;92813;-68
2023/09/21 04:00:30;;;;;;;3.00;1.73;;;12.50;99.90;12.50;99661.00;;;;4985829;28;92143;-67
2023/09/21 04:03:04;;;;;;;6.20;3.13;;;12.50;99.90;12.50;99657.00;;;;4985534;28;93946;-68
2023/09/21 04:05:31;;;;;;;17.13;8.20;;;12.50;99.90;12.50;99654.00;;;;4988857;27;93052;-67
2023/09/21 04:07:58;;;;;;;17.93;6.33;;;12.50;99.90;12.50;99651.00;;;;4993478;28;94096;-67
2023/09/21 04:10:24;;;;;;;13.77;6.23;;;13.00;99.90;12.50;99651.00;;;;4990854;28;92920;-66
2023/09/21 04:12:54;;;;;;;9.53;3.77;;;12.50;99.90;12.50;99653.00;;;;4991814;27;116376;-67
2023/09/21 04:15:25;;;;;;;7.60;2.73;;;12.50;99.90;12.50;99646.00;;;;4993786;27;93690;-67
2023/09/21 04:17:51;;;;;;;7.27;2.93;;;12.50;99.90;12.50;99649.00;;;;4993331;27;101599;-67
2023/09/21 04:20:18;;;;;;;3.17;1.97;;;12.50;99.90;12.50;99635.00;;;;4989474;27;93139;-67
2023/09/21 04:22:46;;;;;;;3.37;1.87;;;12.50;99.90;12.50;99648.00;;;;4990329;28;94104;-67
2023/09/21 04:25:15;;;;;;;4.20;1.70;;;12.50;99.90;12.50;99635.00;;;;4994704;28;93236;-68
2023/09/21 04:27:47;;;;;;;2.30;1.63;;;12.50;99.90;12.50;99640.00;;;;4986621;27;92935;-67
2023/09/21 04:30:18;;;;;;;4.13;2.03;;;12.50;99.90;12.50;99629.00;;;;4992493;27;93290;-66
2023/09/21 04:32:46;;;;;;;2.43;1.57;;;12.80;99.90;12.60;99630.00;;;;4989367;28;94321;-67
2023/09/21 04:35:18;;;;;;;1.70;1.47;;;12.50;99.90;12.60;99635.00;;;;4991193;28;94955;-67
2023/09/21 04:37:45;;;;;;;1.93;1.47;;;12.60;99.90;12.60;99642.00;;;;4968392;28;94788;-66
2023/09/21 04:40:12;;;;;;;2.27;1.57;;;12.50;99.90;12.60;99635.00;;;;4984431;28;92986;-66
2023/09/21 04:42:39;;;;;;;1.60;1.13;;;12.60;99.90;12.60;99632.00;;;;4988236;27;93346;-65
2023/09/21 04:45:11;;;;;;;4.53;1.43;;;12.60;99.90;12.60;99634.00;;;;4994724;27;96552;-66
2023/09/21 04:47:45;;;;;;;3.50;1.40;;;12.60;99.90;12.60;99627.00;;;;4990858;27;93005;-66
2023/09/21 04:50:12;;;;;;;1.33;1.23;;;12.60;99.90;12.60;99630.00;;;;4973068;28;92225;-67
2023/09/21 04:52:38;;;;;;;2.07;1.43;;;12.60;99.90;12.60;99629.00;;;;4989584;27;96032;-66
2023/09/21 04:55:08;;;;;;;2.17;1.17;;;12.70;99.90;12.60;99626.00;;;;4993199;27;99546;-66
2023/09/21 04:57:35;;;;;;;1.30;1.20;;;12.60;99.90;12.60;99626.00;;;;4989493;28;94280;-67
2023/09/21 05:00:09;;;;;;;1.70;1.37;;;12.60;99.90;12.60;99632.00;;;;4981122;28;97038;-66
2023/09/21 05:02:35;;;;;;;4.17;1.33;;;12.60;99.90;12.60;99627.00;;;;4992910;27;93157;-68
2023/09/21 05:05:01;;;;;;;1.90;1.10;;;12.60;99.90;12.60;99625.00;;;;4986976;28;93601;-66
2023/09/21 05:07:27;;;;;;;2.87;1.30;;;12.60;99.90;12.60;99627.00;;;;4978504;28;110449;-67
2023/09/21 05:09:52;;;;;;;2.40;1.40;;;12.60;99.90;12.60;99625.00;;;;4988967;27;93087;-67
2023/09/21 05:12:21;;;;;;;2.17;1.47;;;12.60;99.90;12.70;99629.00;;;;4982282;27;121985;-67
2023/09/21 05:14:47;;;;;;;1.57;1.47;;;12.60;99.90;12.70;99619.00;;;;4994283;28;93332;-66
2023/09/21 05:17:16;;;;;;;2.23;1.73;;;12.60;99.90;12.70;99634.00;;;;4988895;27;93046;-67
2023/09/21 05:19:42;;;;;;;1.77;1.53;;;12.70;99.90;12.80;99626.00;;;;4990275;27;100636;-67
2023/09/21 05:22:09;;;;;;;6.37;1.57;;;12.70;99.90;12.80;99628.00;;;;4982998;27;123820;-67
2023/09/21 05:24:39;;;;;;;3.83;1.33;;;12.70;99.90;12.80;99629.00;;;;4956924;28;95519;-67
2023/09/21 05:27:06;;;;;;;3.70;1.70;;;12.80;99.90;12.80;99625.00;;;;4969647;28;92858;-67
2023/09/21 05:29:32;;;;;;;1.70;1.37;;;12.80;99.90;12.80;99628.00;;;;4972149;28;93051;-67
2023/09/21 05:31:57;;;;;;;1.67;1.17;;;12.80;99.90;12.90;99632.00;;;;4976773;28;93717;-67
2023/09/21 05:34:26;;;;;;;1.37;1.20;;;12.80;99.90;12.90;99626.00;;;;4969423;28;122868;-67
2023/09/21 05:36:53;;;;;;;3.93;0.90;;;12.90;99.90;12.90;99615.00;;;;4957377;28;92879;-68
2023/09/21 05:39:19;;;;;;;1.63;1.40;;;12.90;99.90;12.90;99617.00;;;;4971985;28;92364;-67
2023/09/21 05:41:49;;;;;;;1.67;1.57;;;12.90;99.90;13.00;99623.00;;;;4968469;28;94407;-67
2023/09/21 05:44:15;;;;;;;1.27;1.10;;;12.90;99.90;13.00;99610.00;;;;4971380;28;115555;-67
2023/09/21 05:46:41;;;;;;;1.30;1.20;;;13.00;99.90;13.10;99623.00;;;;4973738;28;93724;-67
2023/09/21 05:49:11;;;;;;;1.60;1.10;;;13.00;99.90;13.20;99625.00;;;;4970582;28;108415;-67
2023/09/21 05:51:37;;;;;;;2.07;1.43;;;13.10;99.90;13.20;99610.00;;;;4971335;28;94055;-67
2023/09/21 05:54:03;;;;;;;1.00;1.00;;;13.20;99.90;13.30;99611.00;;;;4964527;28;123121;-67
2023/09/21 05:56:33;;;;;;;1.47;1.37;;;13.20;99.90;13.40;99615.00;;;;4973488;28;92997;-67
2023/09/21 05:59:03;;;;;;;1.80;1.67;;;13.30;99.90;13.50;99611.00;;;;4972019;28;98889;-66
2023/09/21 06:01:31;;;;;;;3.70;1.47;;;13.40;99.90;13.70;99615.00;;;;4973523;28;93128;-66
2023/09/21 06:03:59;;;;;;;1.73;1.45;;;13.60;99.90;13.90;99615.00;;;;4971528;28;92698;-67
2023/09/21 06:06:28;;;;;;;3.37;1.60;;;13.80;99.90;14.10;99615.00;;;;4970866;28;93092;-66
2023/09/21 06:08:56;;;;;;;2.35;1.50;;;14.00;99.90;14.30;99615.00;;;;4970672;28;93083;-66
2023/09/21 06:11:22;;;;;;;1.67;1.33;;;14.10;99.90;14.40;99614.00;;;;4969898;28;94577;-67
2023/09/21 06:13:48;;;;;;;1.85;1.73;;;14.30;99.90;14.50;99611.00;;;;4971274;28;92992;-67
2023/09/21 06:16:14;;;;;;;2.13;1.58;;;14.40;99.90;14.70;99616.00;;;;4973523;28;93897;-66
2023/09/21 06:18:41;;;;;;;2.13;1.50;;;14.60;99.90;15.00;99609.00;;;;4970922;28;108804;-66
2023/09/21 06:21:06;;;;;;;1.23;0.98;;;14.80;99.90;15.40;99608.00;;;;4964653;28;93573;-67
2023/09/21 06:23:32;;;;;;;3.08;2.00;;;15.20;99.90;15.80;99606.00;;;;4972878;28;123776;-66
2023/09/21 06:25:59;;;;;;;2.38;1.48;;;15.50;99.90;16.20;99602.00;;;;4958839;28;106047;-66
2023/09/21 06:28:24;;;;;;;1.55;1.27;;;15.90;99.90;16.70;99604.00;;;;4974589;28;92250;-66
2023/09/21 06:30:51;;;;;;;2.75;1.65;;;16.30;99.90;17.10;99610.00;;;;4968935;28;121642;-67
2023/09/21 06:33:18;;;;;;;1.30;1.20;;;16.80;99.90;17.60;99610.00;;;;4970502;28;93892;-67
2023/09/21 06:35:44;;;;;;;1.55;1.30;;;17.30;99.90;18.10;99601.00;;;;4972900;28;93922;-67
2023/09/21 06:38:09;;;;;;;1.50;1.40;;;17.80;99.90;18.60;99608.00;;;;4951683;28;99037;-68
2023/09/21 06:40:38;;;;;;;1.15;1.05;;;18.20;99.90;19.00;99611.00;;;;4968671;28;122099;-67
2023/09/21 06:43:07;;;;;;;1.50;1.00;;;18.70;99.90;19.50;99606.00;;;;4964350;28;93737;-67
2023/09/21 06:45:33;;;;;;;4.10;1.17;;;19.10;99.90;19.90;99608.00;;;;4968639;28;92836;-67
2023/09/21 06:48:04;;;;;;;1.10;1.00;;;19.60;99.90;20.40;99607.00;;;;4969292;28;92882;-68
2023/09/21 06:50:30;;;;;;;4.25;1.00;;;20.00;99.90;20.80;99608.00;;;;4958515;28;95574;-66
2023/09/21 06:52:56;;;;;;;1.23;1.13;;;20.50;99.90;21.20;99605.00;;;;4967738;28;93498;-66
2023/09/21 06:55:21;;;;;;;2.10;1.17;;;20.90;99.90;21.60;99613.00;;;;4971445;28;109878;-67
2023/09/21 06:57:47;;;;;;;0.68;0.68;;;21.20;99.90;21.90;99602.00;;;;4973367;28;106816;-66
2023/09/21 07:00:19;;;;;;;0.88;0.88;;;21.60;99.90;22.30;99597.00;;;;4966532;28;122729;-66
2023/09/21 07:02:45;;;;;;;1.50;1.05;;;21.90;99.90;22.60;99593.00;;;;4967663;28;123399;-66
2023/09/21 07:05:12;;;;;;;1.40;0.95;;;22.30;99.90;22.90;99590.00;;;;4950675;28;93926;-66
2023/09/21 07:07:38;;;;;;;0.95;0.77;;;22.60;99.90;23.40;99596.00;;;;4965295;28;93154;-67
2023/09/21 07:10:05;;;;;;;1.15;0.85;;;23.00;99.90;23.80;99587.00;;;;4965158;28;94497;-67
2023/09/21 07:12:31;;;;;;;2.22;1.02;;;23.40;99.90;24.10;99591.00;;;;4971192;28;92993;-67
2023/09/21 07:14:58;;;;;;;0.65;0.65;;;23.80;99.90;24.40;99590.00;;;;4974336;28;101294;-67
2023/09/21 07:17:24;;;;;;;1.75;0.90;;;24.10;98.90;24.50;99593.00;;;;4973940;28;92473;-67
2023/09/21 07:19:50;;;;;;;0.60;0.60;;;24.30;98.30;24.70;99592.00;;;;4975660;28;93387;-67
2023/09/21 07:22:16;;;;;;;0.80;0.80;;;24.40;97.70;24.80;99596.00;;;;4977466;28;99870;-68
2023/09/21 07:24:42;;;;;;;1.15;1.05;;;24.60;96.60;24.80;99593.00;;;;4966738;28;93966;-67
2023/09/21 07:27:07;;;;;;;1.55;0.73;;;24.60;95.20;24.50;99593.00;;;;4973015;28;107765;-67
2023/09/21 07:29:33;;;;;;;1.55;0.85;;;24.40;95.00;24.30;99593.00;;;;4973257;28;92838;-67
2023/09/21 07:32:00;;;;;;;0.98;0.88;;;24.30;94.90;24.10;99597.00;;;;4974464;28;93049;-67
2023/09/21 07:34:25;;;;;;;0.70;0.70;;;24.00;94.80;23.90;99591.00;;;;4971788;28;93202;-67
2023/09/21 07:36:51;;;;;;;1.38;1.08;;;23.80;94.90;23.60;99587.00;;;;4971392;28;108572;-67
2023/09/21 07:39:17;;;;;;;1.45;1.15;;;23.60;95.20;23.50;99590.00;;;;4957876;28;123268;-66
2023/09/21 07:41:46;;;;;;;0.93;0.80;;;23.40;95.30;23.30;99587.00;;;;4973304;28;92699;-66
2023/09/21 07:44:12;;;;;;;1.70;1.30;;;23.20;95.60;23.20;99588.00;;;;4972251;28;92854;-67
2023/09/21 07:46:38;;;;;;;1.85;1.52;;;23.10;95.80;23.10;99582.00;;;;4972755;28;92896;-67
2023/09/21 07:49:07;;;;;;;1.67;1.13;;;22.90;96.10;23.20;99583.00;;;;4969412;28;123205;-68
2023/09/21 07:51:33;;;;;;;2.03;0.93;;;23.00;96.20;23.40;99579.00;;;;4974748;28;94991;-67
2023/09/21 07:54:02;;;;;;;2.60;1.23;;;23.10;96.30;23.70;99580.00;;;;4974524;28;98598;-67
2023/09/21 07:56:30;;;;;;;5.82;0.65;;;23.40;96.20;24.00;99575.00;;;;4978226;28;94533;-68
2023/09/21 07:58:55;;;;;;;1.83;1.02;;;23.70;95.80;24.40;99576.00;;;;4973216;28;106074;-67
2023/09/21 08:01:21;;;;;;;1.15;0.88;;;24.00;95.10;24.60;99575.00;;;;4974727;28;93198;-68
2023/09/21 08:03:50;;;;;;;1.35;0.75;;;24.30;94.70;24.90;99571.00;;;;4974375;28;92856;-67
2023/09/21 08:06:17;;;;;;;6.00;0.73;;;24.50;94.20;25.20;99563.00;;;;4968226;28;92149;-67
2023/09/21 08:08:42;;;;;;;2.50;0.77;;;24.80;93.90;25.50;99561.00;;;;4972140;28;93074;-67
2023/09/21 08:11:08;;;;;;;0.57;0.57;;;25.20;92.80;25.70;99564.00;;;;4971351;28;123485;-68
2023/09/21 08:13:34;;;;;;;0.95;0.85;;;25.40;91.80;25.90;99565.00;;;;4971259;28;110292;-66
2023/09/21 08:15:59;;;;;;;2.97;1.10;;;25.60;91.60;26.10;99554.00;;;;4973800;28;104089;-68
2023/09/21 08:18:25;;;;;;;1.77;1.00;;;25.80;91.40;26.40;99557.00;;;;4977845;28;93126;-67
2023/09/21 08:20:52;;;;;;;1.02;1.02;;;26.10;90.20;26.50;99563.00;;;;4972768;28;121990;-68
2023/09/21 08:23:17;;;;;;;1.23;1.10;;;26.20;88.40;26.50;99563.00;;;;4975063;28;93003;-66
2023/09/21 08:25:43;;;;;;;1.40;1.30;;;26.20;86.60;26.50;99550.00;;;;4972370;28;107934;-68
2023/09/21 08:28:09;;;;;;;1.65;1.10;;;26.30;86.30;26.50;99551.00;;;;4970578;28;122922;-67
2023/09/21 08:30:34;;;;;;;1.25;1.10;;;26.30;85.70;26.50;99542.00;;;;4977128;28;114164;-66
2023/09/21 08:33:01;;;;;;;2.55;0.80;;;26.30;85.50;26.60;99550.00;;;;4972927;28;110566;-67
2023/09/21 08:35:29;;;;;;;8.32;0.88;;;26.40;86.10;26.80;99545.00;;;;4977123;28;92840;-67
2023/09/21 08:37:55;;;;;;;0.70;0.70;;;26.50;84.60;26.80;99546.00;;;;4975682;28;94652;-66
2023/09/21 08:40:21;;;;;;;2.70;1.25;;;26.50;84.00;26.90;99556.00;;;;4971294;28;94349;-67
2023/09/21 08:42:52;;;;;;;1.33;0.90;;;26.60;83.90;26.90;99547.00;;;;4974316;28;92975;-67
2023/09/21 08:45:21;;;;;;;1.23;1.13;;;26.60;82.60;26.90;99548.00;;;;4973638;28;92942;-66
2023/09/21 08:47:48;;;;;;;1.55;1.23;;;26.60;82.50;27.00;99550.00;;;;4972977;28;93769;-67
2023/09/21 08:50:16;;;;;;;1.48;1.15;;;26.70;82.70;27.10;99548.00;;;;4952782;28;93153;-68
2023/09/21 08:52:46;;;;;;;1.05;0.82;;;26.80;82.40;27.30;99545.00;;;;4976145;28;92763;-68
2023/09/21 08:55:12;;;;;;;2.38;1.02;;;26.90;81.90;27.50;99552.00;;;;4975712;28;92011;-66
2023/09/21 08:57:38;;;;;;;1.23;1.13;;;27.10;82.00;27.70;99551.00;;;;4975148;28;93228;-67
2023/09/21 09:00:06;;;;;;;1.42;1.08;;;27.40;79.60;27.90;99550.00;;;;4972213;28;93613;-68
2023/09/21 09:02:35;;;;;;;1.08;0.77;;;27.50;79.00;28.20;99540.00;;;;4953366;28;94182;-67
2023/09/21 09:05:04;;;;;;;1.30;1.20;;;27.70;78.00;28.40;99534.00;;;;4973029;28;92878;-66
2023/09/21 09:07:35;;;;;;;0.82;0.63;;;27.90;76.50;28.50;99537.00;;;;4973420;28;93854;-68
2023/09/21 09:10:01;;;;;;;2.42;1.08;;;28.10;75.90;28.70;99541.00;;;;4974230;28;93361;-67
2023/09/21 09:12:26;;;;;;;0.82;0.77;;;28.30;74.50;28.80;99538.00;;;;4969205;28;110498;-67
2023/09/21 09:14:54;;;;;;;1.17;1.08;;;28.40;73.70;29.00;99539.00;;;;4977103;28;93117;-67
2023/09/21 09:17:20;;;;;;;2.05;0.85;;;28.50;72.20;29.00;99540.00;;;;4972104;28;94035;-67
2023/09/21 09:19:46;;;;;;;1.30;1.20;;;28.60;70.30;28.90;99534.00;;;;4972206;28;120778;-67
2023/09/21 09:22:15;;;;;;;0.80;0.70;;;28.60;69.40;29.00;99528.00;;;;4973880;28;95391;-66
2023/09/21 09:24:40;;;;;;;1.40;0.73;;;28.60;69.20;29.10;99524.00;;;;4972935;28;93123;-69
2023/09/21 09:27:09;;;;;;;1.80;1.33;;;28.60;69.50;29.40;99521.00;;;;4973264;28;123883;-68
2023/09/21 09:29:48;;;;;;;1.20;0.95;;;28.90;69.30;29.70;99525.00;;;;4972203;28;94771;-68
2023/09/21 09:32:16;;;;;;;1.40;0.77;;;29.20;67.50;29.90;99514.00;;;;4969153;28;93027;-69
2023/09/21 09:34:44;;;;;;;1.45;0.90;;;29.40;66.90;30.00;99516.00;;;;4970751;28;92797;-69
2023/09/21 09:37:12;;;;;;;2.63;1.05;;;29.40;65.70;30.10;99511.00;;;;4971295;28;93346;-68
2023/09/21 09:39:38;;;;;;;1.60;0.93;;;29.60;66.10;30.30;99506.00;;;;4954962;28;93867;-69
2023/09/21 09:42:06;;;;;;;1.23;0.85;;;29.80;63.70;30.30;99509.00;;;;4953545;28;109770;-68
2023/09/21 09:44:43;;;;;;;1.17;1.10;;;29.80;63.40;30.30;99500.00;;;;4970978;28;92093;-68
2023/09/21 09:47:12;;;;;;;4.32;1.38;;;29.80;63.30;30.30;99496.00;;;;4972645;28;93987;-69
2023/09/21 09:49:41;;;;;;;1.50;0.90;;;29.80;62.10;30.30;99506.00;;;;4974594;28;93419;-68
2023/09/21 09:52:09;;;;;;;4.93;1.13;;;29.80;62.50;30.40;99501.00;;;;4975227;28;93890;-70
2023/09/21 09:54:36;;;;;;;1.05;0.63;;;29.90;63.20;30.70;99493.00;;;;4951236;28;93035;-69
2023/09/21 09:57:04;;;;;;;5.25;1.15;;;30.10;62.80;31.10;99498.00;;;;4969794;28;121504;-70
2023/09/21 09:59:31;;;;;;;2.42;1.25;;;30.40;61.40;31.10;99485.00;;;;4974462;28;93173;-71
2023/09/21 10:01:59;;;;;;;3.33;1.35;;;30.60;59.70;31.10;99481.00;;;;4973631;28;92933;-68
2023/09/21 10:04:32;;;;;;;4.15;1.17;;;30.60;59.60;31.10;99486.00;;;;4970164;28;108438;-67
2023/09/21 10:06:58;;;;;;;1.20;0.90;;;30.60;59.20;31.10;99482.00;;;;4970250;28;93358;-68
2023/09/21 10:09:27;;;;;;;1.05;0.95;;;30.60;58.90;31.20;99487.00;;;;4971317;28;123148;-69
2023/09/21 10:11:55;;;;;;;1.25;0.73;;;30.60;58.60;31.10;99487.00;;;;4971569;28;93297;-69
2023/09/21 10:14:23;;;;;;;2.13;1.15;;;30.60;58.40;31.10;99484.00;;;;4957006;28;94379;-69
2023/09/21 10:16:56;;;;;;;0.75;0.60;;;30.70;57.90;31.20;99489.00;;;;4970830;28;125104;-69
2023/09/21 10:19:29;;;;;;;1.10;0.93;;;30.70;58.20;31.30;99477.00;;;;4970179;28;93158;-69
2023/09/21 10:22:03;;;;;;;1.65;1.00;;;30.70;58.30;31.40;99481.00;;;;4974349;28;94494;-70
2023/09/21 10:24:30;;;;;;;1.23;1.05;;;30.80;58.10;31.50;99475.00;;;;4969974;28;92956;-69
2023/09/21 10:27:03;;;;;;;3.20;1.10;;;30.90;57.90;31.50;99468.00;;;;4971396;28;93642;-69
2023/09/21 10:29:36;;;;;;;0.80;0.73;;;30.90;57.40;31.50;99473.00;;;;4970805;28;92828;-70
2023/09/21 10:32:08;;;;;;;1.42;0.85;;;31.00;57.60;31.40;99468.00;;;;4953271;28;92783;-69
2023/09/21 10:34:34;;;;;;;2.58;0.90;;;31.00;57.60;31.40;99466.00;;;;4973980;28;93410;-70
2023/09/21 10:37:10;;;;;;;1.42;0.70;;;31.00;57.30;31.50;99468.00;;;;4971855;28;123973;-70
2023/09/21 10:39:39;;;;;;;2.63;0.90;;;31.00;57.20;31.40;99463.00;;;;4972122;28;92902;-70
2023/09/21 10:42:05;;;;;;;2.10;1.25;;;30.90;57.10;31.60;99447.00;;;;4966322;28;93853;-69
2023/09/21 10:44:52;;;;;;;1.95;0.70;;;31.00;57.60;31.80;99449.00;;;;4975917;28;98751;-69
2023/09/21 10:47:48;;;;;;;2.00;1.02;;;31.20;57.20;31.80;99450.00;;;;4953432;28;95686;-69
2023/09/21 10:50:16;;;;;;;0.80;0.80;;;31.30;56.30;31.90;99448.00;;;;4966188;28;93032;-67
2023/09/21 10:52:44;;;;;;;0.98;0.77;;;31.40;56.40;32.10;99446.00;;;;4975461;28;93014;-69
2023/09/21 10:55:14;;;;;;;4.10;1.60;;;31.50;56.30;32.30;99441.00;;;;4969165;28;92963;-70
2023/09/21 10:57:41;;;;;;;1.23;0.88;;;31.70;56.00;32.40;99444.00;;;;4978271;28;93310;-70